createdAt,value
2018-04-14T00:00:38.093Z,42.00
2018-04-14T00:03:05.632Z,41.00
2018-04-14T00:05:33.143Z,38.07
2018-04-14T00:08:01.454Z,42.33
2018-04-14T00:10:28.962Z,41.23
2018-04-14T00:12:56.501Z,40.20
2018-04-14T00:15:24.049Z,41.30
2018-04-14T00:17:52.361Z,37.10
2018-04-14T00:20:19.869Z,40.90
2018-04-14T00:22:47.409Z,43.37
2018-04-14T00:25:15.001Z,41.70
2018-04-14T00:27:42.546Z,39.70
2018-04-14T00:30:10.065Z,37.90
2018-04-14T00:32:37.612Z,41.97
2018-04-14T00:35:05.133Z,39.70
2018-04-14T00:37:33.443Z,36.27
2018-04-14T00:40:01.125Z,38.00
2018-04-14T00:42:28.644Z,36.37
2018-04-14T00:44:56.164Z,37.80
2018-04-14T00:47:23.697Z,42.43
2018-04-14T00:49:51.217Z,42.30
2018-04-14T00:52:18.758Z,40.73
2018-04-14T00:54:47.065Z,40.87
2018-04-14T00:57:14.595Z,41.73
2018-04-14T00:59:42.284Z,42.53
2018-04-14T01:02:10.608Z,42.40
2018-04-14T01:04:38.145Z,40.60
2018-04-14T01:07:05.749Z,40.97
2018-04-14T01:09:33.329Z,41.23
2018-04-14T01:12:01.093Z,42.60
2018-04-14T01:14:29.630Z,43.00
2018-04-14T01:16:57.622Z,42.00
2018-04-14T01:19:25.162Z,45.40
2018-04-14T01:21:52.680Z,45.13
2018-04-14T01:24:20.209Z,42.20
2018-04-14T01:26:47.749Z,45.43
2018-04-14T01:29:16.073Z,42.30
2018-04-14T01:31:54.181Z,40.80
2018-04-14T01:34:21.741Z,39.27
2018-04-14T01:36:49.287Z,39.07
2018-04-14T01:39:16.857Z,43.67
2018-04-14T01:41:44.404Z,41.40
2018-04-14T01:44:12.005Z,37.93
2018-04-14T01:46:40.353Z,42.77
2018-04-14T01:49:07.882Z,39.90
2018-04-14T01:51:35.410Z,40.10
2018-04-14T01:54:02.950Z,38.70
2018-04-14T01:56:30.476Z,38.90
2018-04-14T01:58:58.033Z,39.20
2018-04-14T02:01:25.580Z,43.10
2018-04-14T02:03:53.106Z,39.17
2018-04-14T02:06:21.420Z,43.00
2018-04-14T02:08:48.925Z,44.47
2018-04-14T02:11:16.468Z,43.13
2018-04-14T02:13:44.006Z,40.80
2018-04-14T02:16:12.317Z,43.40
2018-04-14T02:18:39.885Z,46.30
2018-04-14T02:21:07.419Z,44.90
2018-04-14T02:23:34.964Z,46.30
2018-04-14T02:26:02.514Z,42.27
2018-04-14T02:28:30.029Z,45.97
2018-04-14T02:30:57.573Z,48.40
2018-04-14T02:33:25.089Z,48.90
2018-04-14T02:35:52.666Z,45.80
2018-04-14T02:38:20.214Z,45.00
2018-04-14T02:40:47.757Z,46.10
2018-04-14T02:43:15.289Z,45.03
2018-04-14T02:45:43.612Z,44.40
2018-04-14T02:48:11.140Z,48.77
2018-04-14T02:50:39.460Z,43.20
2018-04-14T02:53:06.978Z,48.50
2018-04-14T02:55:34.759Z,48.10
2018-04-14T02:58:02.285Z,53.30
2018-04-14T03:00:29.829Z,45.37
2018-04-14T03:02:58.133Z,47.53
2018-04-14T03:05:25.711Z,51.90
2018-04-14T03:07:53.477Z,52.40
2018-04-14T03:10:21.791Z,54.83
2018-04-14T03:12:49.355Z,53.40
2018-04-14T03:15:16.906Z,56.03
2018-04-14T03:17:44.500Z,56.50
2018-04-14T03:20:12.023Z,57.43
2018-04-14T03:22:40.349Z,53.33
2018-04-14T03:25:07.865Z,54.77
2018-04-14T03:27:35.418Z,55.27
2018-04-14T03:30:02.965Z,50.53
2018-04-14T03:32:30.517Z,50.30
2018-04-14T03:34:58.818Z,52.13
2018-04-14T03:37:27.110Z,55.23
2018-04-14T03:39:55.389Z,49.93
2018-04-14T03:42:23.701Z,53.40
2018-04-14T03:44:51.211Z,57.30
2018-04-14T03:47:18.781Z,53.23
2018-04-14T03:49:46.311Z,50.40
2018-04-14T03:52:13.854Z,54.20
2018-04-14T03:54:41.386Z,52.60
2018-04-14T03:57:08.929Z,54.20
2018-04-14T03:59:36.464Z,52.77
2018-04-14T04:02:04.010Z,49.03
2018-04-14T04:04:31.545Z,50.20
2018-04-14T04:06:59.102Z,49.67
2018-04-14T04:09:27.409Z,51.83
2018-04-14T04:11:54.921Z,53.00
2018-04-14T04:14:22.457Z,53.93
2018-04-14T04:16:49.964Z,50.63
2018-04-14T04:19:29.311Z,52.60
2018-04-14T04:22:08.618Z,52.50
2018-04-14T04:24:47.960Z,54.30
2018-04-14T04:27:15.523Z,53.67
2018-04-14T04:29:43.368Z,54.00
2018-04-14T04:32:11.395Z,55.83
2018-04-14T04:34:39.679Z,54.27
2018-04-14T04:37:07.487Z,54.80
2018-04-14T04:39:35.105Z,53.60
2018-04-14T04:42:02.705Z,58.17
2018-04-14T04:44:30.271Z,55.63
2018-04-14T04:46:58.558Z,52.40
2018-04-14T04:49:26.887Z,53.50
2018-04-14T04:51:54.384Z,52.13
2018-04-14T04:54:21.932Z,59.40
2018-04-14T04:56:49.457Z,58.53
2018-04-14T04:59:17.802Z,61.40
2018-04-14T05:01:45.351Z,55.70
2018-04-14T05:04:12.893Z,58.73
2018-04-14T05:06:41.194Z,52.17
2018-04-14T05:11:42.727Z,59.93
2018-04-14T05:14:10.261Z,51.27
2018-04-14T05:16:37.949Z,52.83
2018-04-14T05:19:05.552Z,57.10
2018-04-14T05:21:33.111Z,54.13
2018-04-14T05:24:00.651Z,54.73
2018-04-14T05:26:28.190Z,51.50
2018-04-14T05:28:56.525Z,47.43
2018-04-14T05:31:24.929Z,54.87
2018-04-14T05:33:52.485Z,53.30
2018-04-14T05:36:20.014Z,58.57
2018-04-14T05:38:57.922Z,52.83
2018-04-14T05:41:25.448Z,58.03
2018-04-14T05:43:52.971Z,57.20
2018-04-14T05:46:20.518Z,60.77
2018-04-14T05:48:48.031Z,58.97
2018-04-14T05:51:15.618Z,58.00
2018-04-14T05:53:43.156Z,54.47
2018-04-14T05:56:10.815Z,55.40
2018-04-14T05:58:38.384Z,55.20
2018-04-14T06:01:05.944Z,61.40
2018-04-14T06:03:33.501Z,55.00
2018-04-14T06:06:01.048Z,56.53
2018-04-14T06:08:29.345Z,54.60
2018-04-14T06:10:56.906Z,56.23
2018-04-14T06:13:25.203Z,50.13
2018-04-14T06:15:53.513Z,52.53
2018-04-14T06:18:21.021Z,50.67
2018-04-14T06:20:48.549Z,53.63
2018-04-14T06:23:16.062Z,53.43
2018-04-14T06:25:43.605Z,50.50
2018-04-14T06:28:11.158Z,52.63
2018-04-14T06:30:39.476Z,51.70
2018-04-14T06:33:06.997Z,53.63
2018-04-14T06:35:35.316Z,52.20
2018-04-14T06:38:02.950Z,53.60
2018-04-14T06:40:30.492Z,55.00
2018-04-14T06:42:58.028Z,50.00
2018-04-14T06:45:25.570Z,50.57
2018-04-14T06:47:53.927Z,55.87
2018-04-14T06:50:21.442Z,55.27
2018-04-14T06:52:49.841Z,48.60
2018-04-14T06:55:18.180Z,49.07
2018-04-14T06:57:45.728Z,47.40
2018-04-14T07:00:13.319Z,47.63
2018-04-14T07:02:40.836Z,46.33
2018-04-14T07:05:09.117Z,43.90
2018-04-14T07:07:37.453Z,44.70
2018-04-14T07:10:04.995Z,46.80
2018-04-14T07:12:33.317Z,41.93
2018-04-14T07:15:00.880Z,42.60
2018-04-14T07:17:28.430Z,37.80
2018-04-14T07:19:56.000Z,37.90
2018-04-14T07:22:24.326Z,39.50
2018-04-14T07:24:51.840Z,36.97
2018-04-14T07:27:19.598Z,36.87
2018-04-14T07:29:47.143Z,36.53
2018-04-14T07:32:14.869Z,34.40
2018-04-14T07:34:42.852Z,36.70
2018-04-14T07:37:10.540Z,36.63
2018-04-14T07:39:38.877Z,40.77
2018-04-14T07:42:06.413Z,41.77
2018-04-14T07:44:34.004Z,44.47
2018-04-14T07:47:01.597Z,44.27
2018-04-14T07:49:29.156Z,42.40
2018-04-14T07:51:56.696Z,42.40
2018-04-14T07:54:24.332Z,46.07
2018-04-14T07:56:51.915Z,40.50
2018-04-14T07:59:21.250Z,39.40
2018-04-14T08:01:48.880Z,44.67
2018-04-14T08:04:16.443Z,41.73
2018-04-14T08:06:43.988Z,41.80
2018-04-14T08:09:11.553Z,40.83
2018-04-14T08:11:39.135Z,40.67
2018-04-14T08:14:06.644Z,44.10
2018-04-14T08:16:34.182Z,49.10
2018-04-14T08:19:01.749Z,51.50
2018-04-14T08:21:29.319Z,46.10
2018-04-14T08:23:56.836Z,44.43
2018-04-14T08:26:25.172Z,46.80
2018-04-14T08:28:52.919Z,54.27
2018-04-14T08:31:20.445Z,51.90
2018-04-14T08:33:58.561Z,50.90
2018-04-14T08:36:26.103Z,46.60
2018-04-14T08:38:54.399Z,45.93
2018-04-14T08:41:22.685Z,46.50
2018-04-14T08:43:50.956Z,45.53
2018-04-14T08:46:18.647Z,46.80
2018-04-14T08:48:46.940Z,43.13
2018-04-14T08:51:14.485Z,42.67
2018-04-14T08:53:42.055Z,44.80
2018-04-14T08:56:09.588Z,51.80
2018-04-14T08:58:37.098Z,49.40
2018-04-14T09:01:04.724Z,50.00
2018-04-14T09:03:32.230Z,49.70
2018-04-14T09:05:59.784Z,49.40
2018-04-14T09:08:27.304Z,45.63
2018-04-14T09:10:55.621Z,49.10
2018-04-14T09:13:23.154Z,51.47
2018-04-14T09:15:51.452Z,52.20
2018-04-14T09:18:19.744Z,47.83
2018-04-14T09:20:50.346Z,49.83
2018-04-14T09:23:17.859Z,47.23
2018-04-14T09:25:46.240Z,43.30
2018-04-14T09:28:14.519Z,43.43
2018-04-14T09:30:42.049Z,43.43
2018-04-14T09:33:09.553Z,43.43
2018-04-14T09:35:37.081Z,38.93
2018-04-14T09:38:04.638Z,42.90
2018-04-14T09:40:32.255Z,44.00
2018-04-14T09:42:59.814Z,42.40
2018-04-14T09:45:27.325Z,43.13
2018-04-14T09:47:54.872Z,44.03
2018-04-14T09:50:22.392Z,37.90
2018-04-14T09:52:53.552Z,40.33
2018-04-14T09:55:21.060Z,44.57
2018-04-14T09:57:48.589Z,44.33
2018-04-14T10:00:21.886Z,42.40
2018-04-14T10:02:50.255Z,40.50
2018-04-14T10:05:17.755Z,44.53
2018-04-14T10:07:46.094Z,45.03
2018-04-14T10:10:13.594Z,41.00
2018-04-14T10:12:41.900Z,43.37
2018-04-14T10:15:10.212Z,42.53
2018-04-14T10:17:37.814Z,45.63
2018-04-14T10:20:05.436Z,45.50
2018-04-14T10:22:33.749Z,47.73
2018-04-14T10:25:01.261Z,51.23
2018-04-14T10:27:28.784Z,47.63
2018-04-14T10:29:56.297Z,46.90
2018-04-14T10:32:23.970Z,48.17
2018-04-14T10:34:51.479Z,44.17
2018-04-14T10:37:19.808Z,44.67
2018-04-14T10:39:47.330Z,44.13
2018-04-14T10:42:15.648Z,43.10
2018-04-14T10:44:43.161Z,43.10
2018-04-14T10:47:10.714Z,41.93
2018-04-14T10:49:38.258Z,42.97
2018-04-14T10:52:06.549Z,44.50
2018-04-14T10:54:34.922Z,44.77
2018-04-14T10:57:03.316Z,43.67
2018-04-14T10:59:31.763Z,43.60
2018-04-14T11:01:59.585Z,46.50
2018-04-14T11:04:28.063Z,44.33
2018-04-14T11:06:55.791Z,42.40
2018-04-14T11:09:24.476Z,41.73
2018-04-14T11:11:52.128Z,43.87
2018-04-14T11:14:20.623Z,43.07
2018-04-14T11:16:50.061Z,44.57
2018-04-14T11:19:17.674Z,44.93
2018-04-14T11:21:45.287Z,46.37
2018-04-14T11:24:13.699Z,45.53
2018-04-14T11:26:41.228Z,42.43
2018-04-14T11:29:08.796Z,43.07
2018-04-14T11:31:36.670Z,46.40
2018-04-14T11:34:05.345Z,48.00
2018-04-14T11:36:38.219Z,47.30
2018-04-14T11:39:05.857Z,44.63
2018-04-14T11:41:33.490Z,42.47
2018-04-14T11:44:01.065Z,44.70
2018-04-14T11:46:28.772Z,41.37
2018-04-14T11:48:56.312Z,43.50
2018-04-14T11:51:23.997Z,43.70
2018-04-14T11:53:51.555Z,42.37
2018-04-14T11:56:19.136Z,44.23
2018-04-14T11:58:46.737Z,41.93
2018-04-14T12:01:14.392Z,43.43
2018-04-14T12:03:41.972Z,43.60
2018-04-14T12:06:09.537Z,42.30
2018-04-14T12:08:37.271Z,42.20
2018-04-14T12:11:04.845Z,38.47
2018-04-14T12:13:32.442Z,42.90
2018-04-14T12:16:00.029Z,42.90
2018-04-14T12:18:27.578Z,45.00
2018-04-14T12:20:55.114Z,46.27
2018-04-14T12:23:23.502Z,43.20
2018-04-14T12:25:51.105Z,43.90
2018-04-14T12:28:18.765Z,41.00
2018-04-14T12:30:46.356Z,42.70
2018-04-14T12:33:13.875Z,42.37
2018-04-14T12:35:41.627Z,39.73
2018-04-14T12:38:09.170Z,41.97
2018-04-14T12:40:36.757Z,41.00
2018-04-14T12:43:04.445Z,38.20
2018-04-14T12:45:32.109Z,43.37
2018-04-14T12:47:59.850Z,43.13
2018-04-14T12:50:28.220Z,41.67
2018-04-14T12:52:55.813Z,40.17
2018-04-14T12:55:24.152Z,40.53
2018-04-14T12:57:51.799Z,41.03
2018-04-14T13:00:20.070Z,40.87
2018-04-14T13:02:48.536Z,42.20
2018-04-14T13:05:17.378Z,39.37
2018-04-14T13:07:44.941Z,37.67
2018-04-14T13:10:13.314Z,38.17
2018-04-14T13:12:41.629Z,40.10
2018-04-14T13:15:09.223Z,38.53
2018-04-14T13:17:36.951Z,41.60
2018-04-14T13:20:04.610Z,39.17
2018-04-14T13:22:32.206Z,44.57
2018-04-14T13:25:00.513Z,43.37
2018-04-14T13:27:28.087Z,42.53
2018-04-14T13:29:55.592Z,42.93
2018-04-14T13:32:23.155Z,40.67
2018-04-14T13:34:50.708Z,41.33
2018-04-14T13:37:18.594Z,42.90
2018-04-14T13:39:46.129Z,41.97
2018-04-14T13:42:14.427Z,38.40
2018-04-14T13:44:42.717Z,42.23
2018-04-14T13:47:11.047Z,41.00
2018-04-14T13:49:38.590Z,44.73
2018-04-14T13:52:06.169Z,40.50
2018-04-14T13:54:33.675Z,42.83
2018-04-14T13:57:01.295Z,41.00
2018-04-14T13:59:29.577Z,42.83
2018-04-14T14:01:57.868Z,45.50
2018-04-14T14:04:26.177Z,44.70
2018-04-14T14:06:53.777Z,41.53
2018-04-14T14:09:21.324Z,39.30
2018-04-14T14:11:48.885Z,41.50
2018-04-14T14:14:17.172Z,39.27
2018-04-14T14:16:44.857Z,40.47
2018-04-14T14:19:12.380Z,41.57
2018-04-14T14:21:39.888Z,38.67
2018-04-14T14:24:08.207Z,38.73
2018-04-14T14:26:35.707Z,42.03
2018-04-14T14:29:03.235Z,38.73
2018-04-14T14:31:30.749Z,38.70
2018-04-14T14:33:58.375Z,40.60
2018-04-14T14:36:25.948Z,44.30
2018-04-14T14:38:53.518Z,40.10
2018-04-14T14:41:21.036Z,42.30
2018-04-14T14:43:48.553Z,39.60
2018-04-14T14:46:16.823Z,41.67
2018-04-14T14:48:44.411Z,39.60
2018-04-14T14:51:12.700Z,40.33
2018-04-14T14:53:40.984Z,40.87
2018-04-14T14:56:09.284Z,40.17
2018-04-14T14:58:36.811Z,39.97
2018-04-14T15:01:04.316Z,40.30
2018-04-14T15:03:32.617Z,37.70
2018-04-14T15:06:00.120Z,38.07
2018-04-14T15:08:27.648Z,39.40
2018-04-14T15:10:55.950Z,37.47
2018-04-14T15:13:24.230Z,40.37
2018-04-14T15:15:52.523Z,38.60
2018-04-14T15:18:20.816Z,42.50
2018-04-14T15:20:49.108Z,37.20
2018-04-14T15:23:17.384Z,37.23
2018-04-14T15:25:45.681Z,38.63
2018-04-14T15:28:13.949Z,38.03
2018-04-14T15:30:41.548Z,37.37
2018-04-14T15:33:09.823Z,35.80
2018-04-14T15:35:38.142Z,37.87
2018-04-14T15:38:05.754Z,34.27
2018-04-14T15:40:33.420Z,31.53
2018-04-14T15:43:01.016Z,34.20
2018-04-14T15:45:28.561Z,33.23
2018-04-14T15:47:56.076Z,31.40
2018-04-14T15:50:23.672Z,33.17
2018-04-14T15:52:51.348Z,33.07
2018-04-14T15:55:18.991Z,30.70
2018-04-14T15:57:47.722Z,31.20
2018-04-14T16:00:15.424Z,29.23
2018-04-14T16:02:43.264Z,33.00
2018-04-14T16:05:11.029Z,34.90
2018-04-14T16:07:39.514Z,33.77
2018-04-14T16:10:08.096Z,34.67
2018-04-14T16:12:35.649Z,30.30
2018-04-14T16:15:03.216Z,31.40
2018-04-14T16:17:30.831Z,31.93
2018-04-14T16:19:59.345Z,34.30
2018-04-14T16:22:26.888Z,31.17
2018-04-14T16:24:54.631Z,29.97
2018-04-14T16:27:22.244Z,30.30
2018-04-14T16:29:49.852Z,33.63
2018-04-14T16:32:17.454Z,28.47
2018-04-14T16:34:45.157Z,32.57
2018-04-14T16:37:12.699Z,30.07
2018-04-14T16:39:40.209Z,32.70
2018-04-14T16:42:08.491Z,32.10
2018-04-14T16:44:36.089Z,31.30
2018-04-14T16:47:03.616Z,32.07
2018-04-14T16:49:31.229Z,33.17
2018-04-14T16:51:59.524Z,30.60
2018-04-14T16:54:27.817Z,30.13
2018-04-14T16:56:55.393Z,31.20
2018-04-14T16:59:22.911Z,29.10
2018-04-14T17:01:50.437Z,32.20
2018-04-14T17:04:17.995Z,28.90
2018-04-14T17:06:45.591Z,30.23
2018-04-14T17:09:13.104Z,29.10
2018-04-14T17:11:40.708Z,31.20
2018-04-14T17:14:08.996Z,28.03
2018-04-14T17:16:37.383Z,30.80
2018-04-14T17:19:05.653Z,29.40
2018-04-14T17:21:33.172Z,29.87
2018-04-14T17:24:00.706Z,30.10
2018-04-14T17:26:29.016Z,26.67
2018-04-14T17:28:57.305Z,28.03
2018-04-14T17:31:25.587Z,27.30
2018-04-14T17:33:53.871Z,27.03
2018-04-14T17:36:21.393Z,29.00
2018-04-14T17:38:49.022Z,27.70
2018-04-14T17:41:17.301Z,31.47
2018-04-14T17:43:45.611Z,30.80
2018-04-14T17:46:13.172Z,31.03
2018-04-14T17:48:41.464Z,30.60
2018-04-14T17:51:09.733Z,30.27
2018-04-14T17:53:37.323Z,30.23
2018-04-14T17:56:05.600Z,28.77
2018-04-14T17:58:33.899Z,31.07
2018-04-14T18:01:02.168Z,28.87
2018-04-14T18:03:29.700Z,32.40
2018-04-14T18:05:57.208Z,29.53
2018-04-14T18:08:25.214Z,28.90
2018-04-14T18:10:53.484Z,29.80
2018-04-14T18:13:21.000Z,30.63
2018-04-14T18:15:48.501Z,30.23
2018-04-14T18:18:16.031Z,30.13
2018-04-14T18:20:43.604Z,29.47
2018-04-14T18:23:11.136Z,30.63
2018-04-14T18:25:38.641Z,28.30
2018-04-14T18:28:06.166Z,30.60
2018-04-14T18:30:33.689Z,28.33
2018-04-14T18:33:01.266Z,30.20
2018-04-14T18:35:28.819Z,30.77
2018-04-14T18:37:57.087Z,42.97
2018-04-14T18:40:24.634Z,35.07
2018-04-14T18:42:52.172Z,33.00
2018-04-14T18:45:19.713Z,29.03
2018-04-14T18:47:48.006Z,29.87
2018-04-14T18:50:16.325Z,29.73
2018-04-14T18:52:43.854Z,31.90
2018-04-14T18:55:12.189Z,30.67
2018-04-14T18:57:39.715Z,34.70
2018-04-14T19:00:07.259Z,36.70
2018-04-14T19:02:34.790Z,35.27
2018-04-14T19:05:02.374Z,33.50
2018-04-14T19:07:29.893Z,33.60
2018-04-14T19:09:57.435Z,36.77
2018-04-14T19:12:24.958Z,36.70
2018-04-14T19:14:53.360Z,33.60
2018-04-14T19:17:20.875Z,37.77
2018-04-14T19:19:48.426Z,33.20
2018-04-14T19:22:15.968Z,35.50
2018-04-14T19:24:44.280Z,34.07
2018-04-14T19:27:11.832Z,34.63
2018-04-14T19:29:40.134Z,34.23
2018-04-14T19:32:07.643Z,33.17
2018-04-14T19:34:35.185Z,35.73
2018-04-14T19:37:02.753Z,31.10
2018-04-14T19:39:30.283Z,33.60
2018-04-14T19:41:57.838Z,33.13
2018-04-14T19:44:25.386Z,32.87
2018-04-14T19:46:52.943Z,31.27
2018-04-14T19:49:20.525Z,32.83
2018-04-14T19:51:48.095Z,32.47
2018-04-14T19:54:15.630Z,34.17
2018-04-14T19:56:43.154Z,31.87
2018-04-14T19:59:10.676Z,33.73
2018-04-14T20:01:39.008Z,32.80
2018-04-14T20:04:06.581Z,36.53
2018-04-14T20:06:34.108Z,35.10
2018-04-14T20:09:02.414Z,35.53
2018-04-14T20:11:29.958Z,35.77
2018-04-14T20:13:57.494Z,37.90
2018-04-14T20:16:25.084Z,34.57
2018-04-14T20:18:53.383Z,33.87
2018-04-14T20:21:20.917Z,35.43
2018-04-14T20:23:48.449Z,33.87
2018-04-14T20:26:16.745Z,32.80
2018-04-14T20:28:44.347Z,35.80
2018-04-14T20:31:11.923Z,31.67
2018-04-14T20:33:39.445Z,39.33
2018-04-14T20:36:06.994Z,36.50
2018-04-14T20:38:34.534Z,35.17
2018-04-14T20:41:02.096Z,35.00
2018-04-14T20:43:29.688Z,36.67
2018-04-14T20:45:57.195Z,37.07
2018-04-14T20:48:24.735Z,39.43
2018-04-14T20:50:52.357Z,35.47
2018-04-14T20:53:20.081Z,37.50
2018-04-14T20:55:47.931Z,37.37
2018-04-14T20:58:15.499Z,36.23
2018-04-14T21:00:43.080Z,39.20
2018-04-14T21:03:10.604Z,34.33
2018-04-14T21:05:38.223Z,35.37
2018-04-14T21:08:05.829Z,36.27
2018-04-14T21:10:33.349Z,37.03
2018-04-14T21:13:01.688Z,37.43
2018-04-14T21:15:29.214Z,34.03
2018-04-14T21:17:57.530Z,33.47
2018-04-14T21:20:25.051Z,34.27
2018-04-14T21:22:52.843Z,40.20
2018-04-14T21:25:20.463Z,37.47
2018-04-14T21:27:48.027Z,38.23
2018-04-14T21:30:15.551Z,37.70
2018-04-14T21:32:43.091Z,41.50
2018-04-14T21:35:10.601Z,38.57
2018-04-14T21:37:38.905Z,37.83
2018-04-14T21:40:07.176Z,42.07
2018-04-14T21:42:34.754Z,39.40
2018-04-14T21:45:03.056Z,40.87
2018-04-14T21:47:31.364Z,45.00
2018-04-14T21:49:58.933Z,41.40
2018-04-14T21:52:26.587Z,41.60
2018-04-14T21:54:54.870Z,41.73
2018-04-14T21:57:23.199Z,43.43
2018-04-14T21:59:50.740Z,43.90
2018-04-14T22:02:19.016Z,45.13
2018-04-14T22:04:48.284Z,45.30
2018-04-14T22:07:15.912Z,43.10
2018-04-14T22:09:44.332Z,47.60
2018-04-14T22:12:11.845Z,46.70
2018-04-14T22:14:39.373Z,44.40
2018-04-14T22:17:07.753Z,43.50
2018-04-14T22:19:35.295Z,46.60
2018-04-14T22:22:02.850Z,43.20
2018-04-14T22:24:30.385Z,46.10
2018-04-14T22:26:57.937Z,45.13
2018-04-14T22:29:25.492Z,43.67
2018-04-14T22:31:53.767Z,44.73
2018-04-14T22:34:21.316Z,47.47
2018-04-14T22:36:48.865Z,46.23
2018-04-14T22:39:16.409Z,48.57
2018-04-14T22:41:44.766Z,46.93
2018-04-14T22:44:12.361Z,44.13
2018-04-14T22:46:40.715Z,45.07
2018-04-14T22:49:08.239Z,45.80
2018-04-14T22:51:35.807Z,47.13
2018-04-14T22:54:04.149Z,51.30
2018-04-14T22:56:31.757Z,50.30
2018-04-14T22:59:00.093Z,46.20
2018-04-14T23:01:27.669Z,48.37
2018-04-14T23:03:55.208Z,45.37
2018-04-14T23:06:22.786Z,42.13
2018-04-14T23:08:50.399Z,39.33
2018-04-14T23:11:17.969Z,37.83
2018-04-14T23:13:45.539Z,36.30
2018-04-14T23:16:13.121Z,36.50
2018-04-14T23:18:40.677Z,34.67
2018-04-14T23:21:08.240Z,27.60
2018-04-14T23:23:35.825Z,26.90
2018-04-14T23:26:03.420Z,24.77
2018-04-14T23:28:31.751Z,25.20
2018-04-14T23:30:59.316Z,24.80
2018-04-14T23:33:27.648Z,23.20
2018-04-14T23:35:55.220Z,25.50
2018-04-14T23:38:22.755Z,24.10
2018-04-14T23:40:50.412Z,23.17
2018-04-14T23:43:18.707Z,22.37
2018-04-14T23:45:47.073Z,20.10
2018-04-14T23:48:14.637Z,19.37
2018-04-14T23:50:42.215Z,21.33
2018-04-14T23:53:10.008Z,21.07
2018-04-14T23:55:37.584Z,20.40
2018-04-14T23:58:05.135Z,20.17
